createdAt,value
2019-02-26T00:01:16.380Z,12.30
2019-02-26T00:06:20.676Z,12.60
2019-02-26T00:11:28.291Z,12.10
2019-02-26T00:16:35.259Z,11.63
2019-02-26T00:21:37.222Z,12.57
2019-02-26T00:26:43.462Z,12.40
2019-02-26T00:31:49.003Z,12.00
2019-02-26T00:36:53.238Z,11.67
2019-02-26T00:41:58.142Z,10.50
2019-02-26T00:47:04.848Z,10.63
2019-02-26T00:52:11.062Z,11.23
2019-02-26T00:57:15.191Z,11.73
2019-02-26T01:02:19.367Z,11.60
2019-02-26T01:07:24.341Z,11.50
2019-02-26T01:12:30.907Z,12.40
2019-02-26T01:17:35.740Z,11.50
2019-02-26T01:22:42.839Z,10.70
2019-02-26T01:27:48.276Z,11.33
2019-02-26T01:32:53.181Z,11.13
2019-02-26T01:37:59.960Z,11.53
2019-02-26T01:43:05.523Z,11.53
2019-02-26T01:48:11.444Z,10.70
2019-02-26T01:53:17.061Z,11.57
2019-02-26T01:58:21.175Z,11.50
2019-02-26T02:03:27.830Z,11.17
2019-02-26T02:08:31.517Z,11.20
2019-02-26T02:13:38.049Z,11.80
2019-02-26T02:18:46.016Z,11.13
2019-02-26T02:23:49.118Z,10.97
2019-02-26T02:28:53.652Z,10.77
2019-02-26T02:33:57.972Z,10.83
2019-02-26T02:39:02.169Z,11.80
2019-02-26T02:44:06.344Z,11.50
2019-02-26T02:49:12.657Z,11.87
2019-02-26T02:54:18.577Z,11.53
2019-02-26T02:59:22.374Z,10.63
2019-02-26T03:04:29.066Z,11.33
2019-02-26T03:09:37.105Z,11.40
2019-02-26T03:14:40.118Z,11.17
2019-02-26T03:19:44.419Z,11.07
2019-02-26T03:24:51.279Z,10.83
2019-02-26T03:29:56.227Z,11.30
2019-02-26T03:35:04.380Z,11.60
2019-02-26T03:40:08.267Z,11.03
2019-02-26T03:45:14.162Z,11.50
2019-02-26T03:50:18.356Z,11.43
2019-02-26T03:55:22.595Z,11.27
2019-02-26T04:00:26.785Z,11.23
2019-02-26T04:05:31.066Z,11.83
2019-02-26T04:10:35.267Z,11.70
2019-02-26T04:15:39.526Z,11.43
2019-02-26T04:20:44.433Z,12.00
2019-02-26T04:25:54.086Z,11.47
2019-02-26T04:31:44.613Z,13.13
2019-02-26T04:37:38.654Z,11.87
2019-02-26T04:43:10.310Z,11.27
2019-02-26T04:48:17.154Z,17.30
2019-02-26T04:53:20.276Z,11.17
2019-02-26T04:58:24.594Z,12.57
2019-02-26T05:03:28.863Z,12.20
2019-02-26T05:08:37.110Z,11.10
2019-02-26T05:13:38.930Z,11.73
2019-02-26T05:18:44.460Z,12.40
2019-02-26T05:23:50.065Z,11.77
2019-02-26T05:28:54.963Z,12.10
2019-02-26T05:34:00.029Z,12.37
2019-02-26T05:39:05.729Z,11.60
2019-02-26T05:44:10.729Z,11.97
2019-02-26T05:49:17.048Z,11.27
2019-02-26T05:54:22.514Z,11.93
2019-02-26T05:59:26.985Z,11.80
2019-02-26T06:04:32.000Z,11.13
2019-02-26T06:09:37.169Z,12.53
2019-02-26T06:14:41.352Z,11.57
2019-02-26T06:19:47.424Z,13.43
2019-02-26T06:24:54.945Z,12.20
2019-02-26T06:29:59.814Z,12.10
2019-02-26T06:35:06.158Z,13.27
2019-02-26T06:40:10.565Z,12.53
2019-02-26T06:45:16.403Z,14.17
2019-02-26T06:50:20.692Z,13.00
2019-02-26T06:55:24.881Z,15.13
2019-02-26T07:00:29.490Z,13.73
2019-02-26T07:05:33.831Z,12.07
2019-02-26T07:10:38.099Z,12.73
2019-02-26T07:15:42.963Z,12.13
2019-02-26T07:20:52.015Z,11.23
2019-02-26T07:25:54.223Z,10.97
2019-02-26T07:31:00.204Z,11.23
2019-02-26T07:36:04.331Z,10.73
2019-02-26T07:41:08.565Z,10.80
2019-02-26T07:46:14.606Z,10.50
2019-02-26T07:51:18.802Z,11.33
2019-02-26T07:56:23.719Z,10.88
2019-02-26T08:01:28.934Z,10.68
2019-02-26T08:06:33.898Z,11.33
2019-02-26T08:11:41.248Z,11.63
2019-02-26T08:16:49.262Z,12.63
2019-02-26T08:21:52.681Z,11.38
2019-02-26T08:26:56.315Z,12.45
2019-02-26T08:32:02.011Z,11.10
2019-02-26T08:37:06.319Z,11.55
2019-02-26T08:42:12.972Z,11.75
2019-02-26T08:47:19.147Z,11.03
2019-02-26T08:52:25.037Z,10.78
2019-02-26T08:57:29.093Z,11.53
2019-02-26T09:02:33.285Z,11.63
2019-02-26T09:07:37.876Z,11.00
2019-02-26T09:12:44.120Z,12.07
2019-02-26T09:17:48.572Z,12.20
2019-02-26T09:22:54.517Z,13.20
2019-02-26T09:27:58.320Z,13.32
2019-02-26T09:33:03.426Z,13.60
2019-02-26T09:38:08.533Z,14.95
2019-02-26T09:43:14.758Z,14.47
2019-02-26T09:48:19.413Z,15.32
2019-02-26T09:53:24.668Z,15.48
2019-02-26T09:58:28.945Z,16.12
2019-02-26T10:03:36.754Z,16.82
2019-02-26T10:08:39.073Z,16.20
2019-02-26T10:13:44.465Z,17.20
2019-02-26T10:18:49.984Z,17.62
2019-02-26T10:23:56.810Z,18.25
2019-02-26T10:29:04.373Z,19.07
2019-02-26T10:34:10.078Z,19.67
2019-02-26T10:39:12.912Z,20.75
2019-02-26T10:44:17.154Z,21.37
2019-02-26T10:49:21.559Z,21.40
2019-02-26T10:54:25.760Z,22.48
2019-02-26T10:59:30.174Z,20.97
2019-02-26T11:04:35.810Z,21.77
2019-02-26T11:09:39.887Z,21.65
2019-02-26T11:17:09.578Z,21.73
2019-02-26T11:22:17.728Z,20.48
2019-02-26T11:27:19.732Z,20.08
2019-02-26T11:32:23.920Z,20.52
2019-02-26T11:37:29.517Z,19.57
2019-02-26T11:42:34.083Z,18.45
2019-02-26T11:47:39.171Z,19.05
2019-02-26T11:52:44.176Z,17.77
2019-02-26T11:57:49.819Z,16.95
2019-02-26T12:02:54.108Z,17.00
2019-02-26T12:07:58.861Z,15.30
2019-02-26T12:13:03.151Z,16.37
2019-02-26T12:18:19.945Z,16.42
2019-02-26T12:23:25.021Z,15.13
2019-02-26T12:28:32.458Z,16.10
2019-02-26T12:33:35.277Z,15.72
2019-02-26T12:38:39.586Z,15.03
2019-02-26T12:43:46.349Z,13.90
2019-02-26T12:48:50.336Z,13.53
2019-02-26T12:53:54.203Z,13.83
2019-02-26T12:58:58.421Z,13.58
2019-02-26T13:04:02.711Z,13.45
2019-02-26T13:09:07.200Z,14.33
2019-02-26T13:14:11.485Z,13.03
2019-02-26T13:19:21.403Z,12.85
2019-02-26T13:24:26.643Z,12.58
2019-02-26T13:29:28.679Z,12.98
2019-02-26T13:34:32.877Z,11.38
2019-02-26T13:44:43.023Z,13.08
2019-02-26T13:49:47.225Z,13.83
2019-02-26T13:54:51.415Z,13.65
2019-02-26T13:59:55.685Z,14.90
2019-02-26T14:05:00.000Z,15.23
2019-02-26T14:10:04.767Z,15.15
2019-02-26T14:15:10.331Z,14.85
2019-02-26T14:20:14.507Z,15.03
2019-02-26T14:25:18.709Z,15.00
2019-02-26T14:30:22.988Z,15.65
2019-02-26T14:35:27.187Z,15.45
2019-02-26T14:40:31.411Z,16.67
2019-02-26T14:45:35.719Z,15.72
2019-02-26T14:50:39.982Z,15.08
2019-02-26T14:55:44.273Z,15.88
2019-02-26T15:00:57.138Z,15.32
2019-02-26T15:05:53.835Z,14.03
2019-02-26T15:10:58.048Z,15.03
2019-02-26T15:16:02.278Z,14.13
2019-02-26T15:21:07.251Z,13.53
2019-02-26T15:26:11.571Z,12.95
2019-02-26T15:31:16.142Z,12.10
2019-02-26T15:36:20.364Z,12.18
2019-02-26T15:41:25.055Z,12.20
2019-02-26T15:46:30.877Z,12.68
2019-02-26T15:51:35.314Z,12.43
2019-02-26T15:56:40.835Z,12.05
2019-02-26T16:01:45.150Z,12.23
2019-02-26T16:06:49.338Z,11.83
2019-02-26T16:11:53.615Z,12.37
2019-02-26T16:16:57.828Z,15.70
2019-02-26T16:22:02.030Z,16.80
2019-02-26T16:27:06.229Z,14.20
2019-02-26T16:32:10.427Z,12.70
2019-02-26T16:37:14.633Z,12.50
2019-02-26T16:42:19.165Z,12.35
2019-02-26T16:47:23.503Z,11.80
2019-02-26T16:52:28.288Z,12.28
2019-02-26T16:57:32.199Z,12.47
2019-02-26T17:02:36.233Z,12.65
2019-02-26T17:07:39.972Z,12.58
2019-02-26T17:12:45.387Z,13.00
2019-02-26T17:17:49.068Z,13.72
2019-02-26T17:22:52.819Z,13.45
2019-02-26T17:27:56.624Z,13.60
2019-02-26T17:33:00.368Z,14.33
2019-02-26T17:38:04.585Z,12.63
2019-02-26T17:43:08.378Z,17.27
2019-02-26T17:48:12.264Z,14.30
2019-02-26T17:53:15.926Z,12.43
2019-02-26T17:58:19.660Z,13.25
2019-02-26T18:03:23.383Z,13.75
2019-02-26T18:08:27.261Z,12.82
2019-02-26T18:13:30.943Z,12.65
2019-02-26T18:18:34.935Z,12.20
2019-02-26T18:23:38.744Z,12.05
2019-02-26T18:28:42.576Z,12.05
2019-02-26T18:33:46.333Z,13.35
2019-02-26T18:38:50.033Z,13.32
2019-02-26T18:43:53.762Z,15.05
2019-02-26T18:48:57.532Z,24.45
2019-02-26T18:54:01.306Z,14.65
2019-02-26T18:59:04.988Z,14.23
2019-02-26T19:04:08.644Z,14.78
2019-02-26T19:09:12.386Z,15.63
2019-02-26T19:14:16.069Z,16.00
2019-02-26T19:19:19.735Z,15.28
2019-02-26T19:24:23.540Z,15.05
2019-02-26T19:29:31.176Z,16.27
2019-02-26T19:34:32.722Z,15.53
2019-02-26T19:39:36.576Z,16.03
2019-02-26T19:44:40.321Z,17.40
2019-02-26T19:49:44.102Z,16.12
2019-02-26T19:54:47.770Z,15.87
2019-02-26T19:59:51.507Z,14.27
2019-02-26T20:04:55.241Z,16.33
2019-02-26T20:09:58.991Z,15.33
2019-02-26T20:15:02.828Z,17.25
2019-02-26T20:20:07.065Z,15.50
2019-02-26T20:25:12.089Z,16.77
2019-02-26T20:30:16.645Z,16.50
2019-02-26T20:35:20.409Z,16.05
2019-02-26T20:40:24.130Z,13.93
2019-02-26T20:45:27.944Z,16.97
2019-02-26T20:50:31.640Z,19.30
2019-02-26T20:55:35.377Z,16.13
2019-02-26T21:00:42.384Z,18.47
2019-02-26T21:05:45.348Z,15.97
2019-02-26T21:10:49.709Z,16.43
2019-02-26T21:15:53.541Z,16.30
2019-02-26T21:20:57.294Z,14.63
2019-02-26T21:26:01.057Z,15.50
2019-02-26T21:31:04.809Z,17.20
2019-02-26T21:36:08.567Z,14.93
2019-02-26T21:41:12.229Z,15.37
2019-02-26T21:46:15.898Z,16.50
2019-02-26T21:51:19.549Z,15.20
2019-02-26T21:56:23.220Z,14.80
2019-02-26T22:01:26.941Z,15.33
2019-02-26T22:06:30.605Z,15.97
2019-02-26T22:11:34.335Z,16.20
2019-02-26T22:16:37.988Z,16.40
2019-02-26T22:21:51.858Z,15.83
2019-02-26T22:26:53.615Z,16.27
2019-02-26T22:31:59.716Z,16.70
2019-02-26T22:37:07.020Z,18.03
2019-02-26T22:42:08.663Z,16.50
2019-02-26T22:47:13.635Z,14.83
2019-02-26T22:52:17.486Z,14.83
2019-02-26T22:57:21.328Z,14.93
2019-02-26T23:02:25.923Z,14.40
2019-02-26T23:07:29.574Z,13.90
2019-02-26T23:12:33.479Z,13.17
2019-02-26T23:17:37.295Z,13.77
2019-02-26T23:22:40.978Z,12.47
2019-02-26T23:27:46.111Z,13.97
2019-02-26T23:32:50.181Z,12.80
2019-02-26T23:37:54.129Z,13.20
2019-02-26T23:42:57.928Z,13.20
2019-02-26T23:48:07.803Z,13.07
2019-02-26T23:53:08.708Z,12.50
2019-02-26T23:58:12.370Z,13.67
